sensor_id;sensor_type;location;lat;lon;timestamp;P1;durP1;ratioP1;P2;durP2;ratioP2
17991;SDS011;9121;50.926;5.340;2023-05-07T00:00:49;14.05;;;10.05;;
17991;SDS011;9121;50.926;5.340;2023-05-07T00:03:16;15.00;;;10.13;;
17991;SDS011;9121;50.926;5.340;2023-05-07T00:05:44;19.63;;;10.80;;
17991;SDS011;9121;50.926;5.340;2023-05-07T00:08:11;13.63;;;9.43;;
17991;SDS011;9121;50.926;5.340;2023-05-07T00:10:38;13.82;;;9.50;;
17991;SDS011;9121;50.926;5.340;2023-05-07T00:13:05;15.68;;;9.95;;
17991;SDS011;9121;50.926;5.340;2023-05-07T00:15:32;13.43;;;8.77;;
17991;SDS011;9121;50.926;5.340;2023-05-07T00:18:00;12.90;;;8.65;;
17991;SDS011;9121;50.926;5.340;2023-05-07T00:20:27;12.10;;;8.82;;
17991;SDS011;9121;50.926;5.340;2023-05-07T00:22:54;13.98;;;8.32;;
17991;SDS011;9121;50.926;5.340;2023-05-07T00:25:21;14.13;;;8.15;;
17991;SDS011;9121;50.926;5.340;2023-05-07T00:27:48;14.52;;;8.57;;
17991;SDS011;9121;50.926;5.340;2023-05-07T00:30:15;13.85;;;9.60;;
17991;SDS011;9121;50.926;5.340;2023-05-07T00:32:42;16.75;;;10.20;;
17991;SDS011;9121;50.926;5.340;2023-05-07T00:35:11;16.45;;;10.27;;
17991;SDS011;9121;50.926;5.340;2023-05-07T00:37:38;13.82;;;9.68;;
17991;SDS011;9121;50.926;5.340;2023-05-07T00:40:06;14.50;;;10.20;;
17991;SDS011;9121;50.926;5.340;2023-05-07T00:42:33;18.08;;;10.75;;
17991;SDS011;9121;50.926;5.340;2023-05-07T00:45:00;16.38;;;10.82;;
17991;SDS011;9121;50.926;5.340;2023-05-07T00:47:27;19.15;;;9.68;;
17991;SDS011;9121;50.926;5.340;2023-05-07T00:49:55;16.67;;;9.70;;
17991;SDS011;9121;50.926;5.340;2023-05-07T00:52:25;17.92;;;9.57;;
17991;SDS011;9121;50.926;5.340;2023-05-07T00:54:52;18.48;;;10.93;;
17991;SDS011;9121;50.926;5.340;2023-05-07T00:57:20;14.75;;;9.25;;
17991;SDS011;9121;50.926;5.340;2023-05-07T00:59:48;14.20;;;9.27;;
17991;SDS011;9121;50.926;5.340;2023-05-07T01:02:15;11.55;;;8.07;;
17991;SDS011;9121;50.926;5.340;2023-05-07T01:04:42;13.00;;;8.27;;
17991;SDS011;9121;50.926;5.340;2023-05-07T01:07:09;11.85;;;7.75;;
17991;SDS011;9121;50.926;5.340;2023-05-07T01:09:38;17.75;;;8.35;;
17991;SDS011;9121;50.926;5.340;2023-05-07T01:12:05;10.85;;;7.70;;
17991;SDS011;9121;50.926;5.340;2023-05-07T01:14:33;13.88;;;7.65;;
17991;SDS011;9121;50.926;5.340;2023-05-07T01:17:00;12.05;;;7.35;;
17991;SDS011;9121;50.926;5.340;2023-05-07T01:19:28;14.20;;;7.32;;
17991;SDS011;9121;50.926;5.340;2023-05-07T01:21:58;12.57;;;7.43;;
17991;SDS011;9121;50.926;5.340;2023-05-07T01:24:31;12.52;;;7.40;;
17991;SDS011;9121;50.926;5.340;2023-05-07T01:26:58;12.35;;;6.90;;
17991;SDS011;9121;50.926;5.340;2023-05-07T01:29:26;13.25;;;8.07;;
17991;SDS011;9121;50.926;5.340;2023-05-07T01:31:53;11.77;;;7.00;;
17991;SDS011;9121;50.926;5.340;2023-05-07T01:34:22;10.75;;;7.32;;
17991;SDS011;9121;50.926;5.340;2023-05-07T01:36:51;14.15;;;7.40;;
17991;SDS011;9121;50.926;5.340;2023-05-07T01:39:20;14.85;;;7.47;;
17991;SDS011;9121;50.926;5.340;2023-05-07T01:41:50;13.07;;;7.60;;
17991;SDS011;9121;50.926;5.340;2023-05-07T01:44:17;12.15;;;7.40;;
17991;SDS011;9121;50.926;5.340;2023-05-07T01:46:45;13.00;;;7.30;;
17991;SDS011;9121;50.926;5.340;2023-05-07T01:49:14;13.05;;;8.27;;
17991;SDS011;9121;50.926;5.340;2023-05-07T01:51:41;12.00;;;7.82;;
17991;SDS011;9121;50.926;5.340;2023-05-07T01:54:09;16.50;;;8.45;;
17991;SDS011;9121;50.926;5.340;2023-05-07T01:56:36;17.02;;;8.73;;
17991;SDS011;9121;50.926;5.340;2023-05-07T01:59:05;11.00;;;7.45;;
17991;SDS011;9121;50.926;5.340;2023-05-07T02:01:31;11.88;;;7.47;;
17991;SDS011;9121;50.926;5.340;2023-05-07T02:03:58;13.82;;;7.60;;
17991;SDS011;9121;50.926;5.340;2023-05-07T02:06:25;11.60;;;7.30;;
17991;SDS011;9121;50.926;5.340;2023-05-07T02:08:52;8.77;;;6.82;;
17991;SDS011;9121;50.926;5.340;2023-05-07T02:11:19;11.68;;;7.07;;
17991;SDS011;9121;50.926;5.340;2023-05-07T02:13:46;13.65;;;7.63;;
17991;SDS011;9121;50.926;5.340;2023-05-07T02:16:14;12.27;;;7.47;;
17991;SDS011;9121;50.926;5.340;2023-05-07T02:18:41;11.23;;;7.28;;
17991;SDS011;9121;50.926;5.340;2023-05-07T02:21:08;14.23;;;7.53;;
17991;SDS011;9121;50.926;5.340;2023-05-07T02:23:35;11.85;;;7.50;;
17991;SDS011;9121;50.926;5.340;2023-05-07T02:26:03;11.35;;;7.95;;
17991;SDS011;9121;50.926;5.340;2023-05-07T02:28:30;20.38;;;9.00;;
17991;SDS011;9121;50.926;5.340;2023-05-07T02:30:57;12.15;;;8.95;;
17991;SDS011;9121;50.926;5.340;2023-05-07T02:33:26;15.98;;;9.38;;
17991;SDS011;9121;50.926;5.340;2023-05-07T02:35:53;21.63;;;10.13;;
17991;SDS011;9121;50.926;5.340;2023-05-07T02:38:20;16.90;;;10.60;;
17991;SDS011;9121;50.926;5.340;2023-05-07T02:40:48;17.23;;;11.18;;
17991;SDS011;9121;50.926;5.340;2023-05-07T02:43:14;16.10;;;11.20;;
17991;SDS011;9121;50.926;5.340;2023-05-07T02:45:41;16.02;;;10.43;;
17991;SDS011;9121;50.926;5.340;2023-05-07T02:48:09;20.67;;;10.98;;
17991;SDS011;9121;50.926;5.340;2023-05-07T02:50:37;24.80;;;11.13;;
17991;SDS011;9121;50.926;5.340;2023-05-07T02:53:04;16.23;;;11.35;;
17991;SDS011;9121;50.926;5.340;2023-05-07T02:55:31;16.88;;;10.70;;
17991;SDS011;9121;50.926;5.340;2023-05-07T02:57:58;19.95;;;10.45;;
17991;SDS011;9121;50.926;5.340;2023-05-07T03:00:25;16.88;;;10.27;;
17991;SDS011;9121;50.926;5.340;2023-05-07T03:02:52;17.25;;;11.05;;
17991;SDS011;9121;50.926;5.340;2023-05-07T03:05:19;19.90;;;11.43;;
17991;SDS011;9121;50.926;5.340;2023-05-07T03:07:47;17.92;;;10.57;;
17991;SDS011;9121;50.926;5.340;2023-05-07T03:10:15;17.10;;;10.25;;
17991;SDS011;9121;50.926;5.340;2023-05-07T03:12:42;14.68;;;10.95;;
17991;SDS011;9121;50.926;5.340;2023-05-07T03:15:09;18.35;;;10.07;;
17991;SDS011;9121;50.926;5.340;2023-05-07T03:17:37;16.98;;;10.10;;
17991;SDS011;9121;50.926;5.340;2023-05-07T03:20:05;15.95;;;9.70;;
17991;SDS011;9121;50.926;5.340;2023-05-07T03:22:33;16.42;;;10.93;;
17991;SDS011;9121;50.926;5.340;2023-05-07T03:25:01;16.10;;;10.35;;
17991;SDS011;9121;50.926;5.340;2023-05-07T03:27:28;19.08;;;10.90;;
17991;SDS011;9121;50.926;5.340;2023-05-07T03:29:55;18.40;;;10.77;;
17991;SDS011;9121;50.926;5.340;2023-05-07T03:32:22;14.20;;;9.85;;
17991;SDS011;9121;50.926;5.340;2023-05-07T03:34:49;14.98;;;9.70;;
17991;SDS011;9121;50.926;5.340;2023-05-07T03:37:16;13.80;;;9.93;;
17991;SDS011;9121;50.926;5.340;2023-05-07T03:39:43;15.07;;;10.77;;
17991;SDS011;9121;50.926;5.340;2023-05-07T03:42:11;20.17;;;10.65;;
17991;SDS011;9121;50.926;5.340;2023-05-07T03:44:38;15.38;;;10.90;;
17991;SDS011;9121;50.926;5.340;2023-05-07T03:47:05;20.10;;;11.10;;
17991;SDS011;9121;50.926;5.340;2023-05-07T03:49:32;16.30;;;11.93;;
17991;SDS011;9121;50.926;5.340;2023-05-07T03:52:00;16.63;;;11.90;;
17991;SDS011;9121;50.926;5.340;2023-05-07T03:54:26;17.13;;;12.32;;
17991;SDS011;9121;50.926;5.340;2023-05-07T03:56:53;19.50;;;13.13;;
17991;SDS011;9121;50.926;5.340;2023-05-07T03:59:22;17.50;;;12.27;;
17991;SDS011;9121;50.926;5.340;2023-05-07T04:01:49;15.40;;;11.75;;
17991;SDS011;9121;50.926;5.340;2023-05-07T04:04:16;18.27;;;11.60;;
17991;SDS011;9121;50.926;5.340;2023-05-07T04:06:43;18.10;;;11.90;;
17991;SDS011;9121;50.926;5.340;2023-05-07T04:09:10;16.98;;;11.85;;
17991;SDS011;9121;50.926;5.340;2023-05-07T04:11:37;16.70;;;11.80;;
17991;SDS011;9121;50.926;5.340;2023-05-07T04:14:05;18.30;;;12.55;;
17991;SDS011;9121;50.926;5.340;2023-05-07T04:16:34;21.38;;;12.70;;
17991;SDS011;9121;50.926;5.340;2023-05-07T04:19:01;20.58;;;13.25;;
17991;SDS011;9121;50.926;5.340;2023-05-07T04:21:27;20.23;;;13.82;;
17991;SDS011;9121;50.926;5.340;2023-05-07T04:23:55;20.92;;;14.10;;
17991;SDS011;9121;50.926;5.340;2023-05-07T04:26:22;20.90;;;13.57;;
17991;SDS011;9121;50.926;5.340;2023-05-07T04:28:49;24.50;;;14.93;;
17991;SDS011;9121;50.926;5.340;2023-05-07T04:31:16;20.50;;;14.18;;
17991;SDS011;9121;50.926;5.340;2023-05-07T04:33:44;20.08;;;14.13;;
17991;SDS011;9121;50.926;5.340;2023-05-07T04:36:11;16.50;;;13.05;;
17991;SDS011;9121;50.926;5.340;2023-05-07T04:38:38;20.52;;;13.85;;
17991;SDS011;9121;50.926;5.340;2023-05-07T04:41:06;19.35;;;15.07;;
17991;SDS011;9121;50.926;5.340;2023-05-07T04:43:36;21.92;;;14.68;;
17991;SDS011;9121;50.926;5.340;2023-05-07T04:46:03;19.92;;;13.88;;
17991;SDS011;9121;50.926;5.340;2023-05-07T04:48:30;20.45;;;13.27;;
17991;SDS011;9121;50.926;5.340;2023-05-07T04:50:58;21.20;;;14.10;;
17991;SDS011;9121;50.926;5.340;2023-05-07T04:53:25;18.83;;;13.10;;
17991;SDS011;9121;50.926;5.340;2023-05-07T04:55:54;21.02;;;13.50;;
17991;SDS011;9121;50.926;5.340;2023-05-07T04:58:22;19.52;;;13.35;;
17991;SDS011;9121;50.926;5.340;2023-05-07T05:00:49;18.98;;;13.38;;
17991;SDS011;9121;50.926;5.340;2023-05-07T05:03:16;19.90;;;13.80;;
17991;SDS011;9121;50.926;5.340;2023-05-07T05:05:43;17.60;;;12.90;;
17991;SDS011;9121;50.926;5.340;2023-05-07T05:08:12;21.73;;;13.45;;
17991;SDS011;9121;50.926;5.340;2023-05-07T05:10:38;18.42;;;13.55;;
17991;SDS011;9121;50.926;5.340;2023-05-07T05:13:06;18.05;;;13.13;;
17991;SDS011;9121;50.926;5.340;2023-05-07T05:15:34;19.08;;;13.38;;
17991;SDS011;9121;50.926;5.340;2023-05-07T05:18:01;16.92;;;12.95;;
17991;SDS011;9121;50.926;5.340;2023-05-07T05:20:28;18.85;;;13.25;;
17991;SDS011;9121;50.926;5.340;2023-05-07T05:22:55;22.88;;;13.52;;
17991;SDS011;9121;50.926;5.340;2023-05-07T05:25:23;17.50;;;13.00;;
17991;SDS011;9121;50.926;5.340;2023-05-07T05:27:50;17.00;;;12.80;;
17991;SDS011;9121;50.926;5.340;2023-05-07T05:30:17;18.42;;;12.73;;
17991;SDS011;9121;50.926;5.340;2023-05-07T05:32:44;15.70;;;11.93;;
17991;SDS011;9121;50.926;5.340;2023-05-07T05:35:11;13.40;;;10.88;;
17991;SDS011;9121;50.926;5.340;2023-05-07T05:37:38;19.25;;;11.25;;
17991;SDS011;9121;50.926;5.340;2023-05-07T05:40:05;17.52;;;10.82;;
17991;SDS011;9121;50.926;5.340;2023-05-07T05:42:34;16.63;;;11.43;;
17991;SDS011;9121;50.926;5.340;2023-05-07T05:45:01;15.20;;;10.63;;
17991;SDS011;9121;50.926;5.340;2023-05-07T05:47:28;14.32;;;10.68;;
17991;SDS011;9121;50.926;5.340;2023-05-07T05:49:56;15.07;;;11.13;;
17991;SDS011;9121;50.926;5.340;2023-05-07T05:52:22;14.55;;;9.80;;
17991;SDS011;9121;50.926;5.340;2023-05-07T05:54:50;15.77;;;10.10;;
17991;SDS011;9121;50.926;5.340;2023-05-07T05:57:16;12.82;;;10.23;;
17991;SDS011;9121;50.926;5.340;2023-05-07T05:59:45;13.55;;;9.93;;
17991;SDS011;9121;50.926;5.340;2023-05-07T06:02:13;12.93;;;9.93;;
17991;SDS011;9121;50.926;5.340;2023-05-07T06:04:39;15.88;;;9.55;;
17991;SDS011;9121;50.926;5.340;2023-05-07T06:07:07;14.80;;;10.25;;
17991;SDS011;9121;50.926;5.340;2023-05-07T06:09:34;15.60;;;9.88;;
17991;SDS011;9121;50.926;5.340;2023-05-07T06:12:01;14.63;;;9.57;;
17991;SDS011;9121;50.926;5.340;2023-05-07T06:14:28;14.80;;;10.00;;
17991;SDS011;9121;50.926;5.340;2023-05-07T06:16:57;16.13;;;9.55;;
17991;SDS011;9121;50.926;5.340;2023-05-07T06:19:24;16.98;;;9.50;;
17991;SDS011;9121;50.926;5.340;2023-05-07T06:21:51;15.25;;;9.88;;
17991;SDS011;9121;50.926;5.340;2023-05-07T06:24:18;17.48;;;9.90;;
17991;SDS011;9121;50.926;5.340;2023-05-07T06:26:45;12.90;;;9.20;;
17991;SDS011;9121;50.926;5.340;2023-05-07T06:29:12;15.05;;;9.35;;
17991;SDS011;9121;50.926;5.340;2023-05-07T06:31:39;12.88;;;9.25;;
17991;SDS011;9121;50.926;5.340;2023-05-07T06:34:08;12.85;;;8.30;;
17991;SDS011;9121;50.926;5.340;2023-05-07T06:36:35;14.18;;;8.65;;
17991;SDS011;9121;50.926;5.340;2023-05-07T06:39:02;13.60;;;8.73;;
17991;SDS011;9121;50.926;5.340;2023-05-07T06:41:29;12.95;;;8.20;;
17991;SDS011;9121;50.926;5.340;2023-05-07T06:43:56;10.80;;;7.75;;
17991;SDS011;9121;50.926;5.340;2023-05-07T06:46:22;13.00;;;8.02;;
17991;SDS011;9121;50.926;5.340;2023-05-07T06:48:49;13.65;;;8.68;;
17991;SDS011;9121;50.926;5.340;2023-05-07T06:51:18;10.43;;;8.05;;
17991;SDS011;9121;50.926;5.340;2023-05-07T06:53:45;9.25;;;7.07;;
17991;SDS011;9121;50.926;5.340;2023-05-07T06:56:12;11.27;;;6.97;;
17991;SDS011;9121;50.926;5.340;2023-05-07T06:58:39;18.58;;;8.05;;
17991;SDS011;9121;50.926;5.340;2023-05-07T07:01:06;10.38;;;7.22;;
17991;SDS011;9121;50.926;5.340;2023-05-07T07:03:33;9.70;;;6.68;;
17991;SDS011;9121;50.926;5.340;2023-05-07T07:06:00;11.35;;;6.97;;
17991;SDS011;9121;50.926;5.340;2023-05-07T07:08:29;12.73;;;7.47;;
17991;SDS011;9121;50.926;5.340;2023-05-07T07:10:56;9.00;;;6.85;;
17991;SDS011;9121;50.926;5.340;2023-05-07T07:13:23;10.93;;;7.18;;
17991;SDS011;9121;50.926;5.340;2023-05-07T07:15:51;10.80;;;7.30;;
17991;SDS011;9121;50.926;5.340;2023-05-07T07:18:18;8.68;;;6.72;;
17991;SDS011;9121;50.926;5.340;2023-05-07T07:20:45;8.18;;;6.63;;
17991;SDS011;9121;50.926;5.340;2023-05-07T07:23:12;9.75;;;6.43;;
17991;SDS011;9121;50.926;5.340;2023-05-07T07:25:40;10.02;;;5.93;;
17991;SDS011;9121;50.926;5.340;2023-05-07T07:28:07;11.77;;;6.28;;
17991;SDS011;9121;50.926;5.340;2023-05-07T07:30:35;8.43;;;6.60;;
17991;SDS011;9121;50.926;5.340;2023-05-07T07:33:02;8.68;;;6.78;;
17991;SDS011;9121;50.926;5.340;2023-05-07T07:35:30;8.85;;;6.28;;
17991;SDS011;9121;50.926;5.340;2023-05-07T07:37:57;11.73;;;6.72;;
17991;SDS011;9121;50.926;5.340;2023-05-07T07:40:24;10.75;;;6.68;;
17991;SDS011;9121;50.926;5.340;2023-05-07T07:42:53;10.18;;;6.55;;
17991;SDS011;9121;50.926;5.340;2023-05-07T07:45:20;11.05;;;6.03;;
17991;SDS011;9121;50.926;5.340;2023-05-07T07:47:47;12.68;;;6.35;;
17991;SDS011;9121;50.926;5.340;2023-05-07T07:50:14;6.68;;;5.55;;
17991;SDS011;9121;50.926;5.340;2023-05-07T07:52:41;10.65;;;6.03;;
17991;SDS011;9121;50.926;5.340;2023-05-07T07:55:08;6.38;;;5.30;;
17991;SDS011;9121;50.926;5.340;2023-05-07T07:57:35;11.50;;;6.10;;
17991;SDS011;9121;50.926;5.340;2023-05-07T08:00:04;7.28;;;5.80;;
17991;SDS011;9121;50.926;5.340;2023-05-07T08:02:32;11.13;;;5.35;;
17991;SDS011;9121;50.926;5.340;2023-05-07T08:04:59;9.38;;;4.65;;
17991;SDS011;9121;50.926;5.340;2023-05-07T08:07:26;5.32;;;4.05;;
17991;SDS011;9121;50.926;5.340;2023-05-07T08:09:53;8.27;;;4.57;;
17991;SDS011;9121;50.926;5.340;2023-05-07T08:12:19;8.68;;;5.25;;
17991;SDS011;9121;50.926;5.340;2023-05-07T08:14:47;8.10;;;4.90;;
17991;SDS011;9121;50.926;5.340;2023-05-07T08:17:15;8.15;;;4.63;;
17991;SDS011;9121;50.926;5.340;2023-05-07T08:19:42;8.27;;;4.20;;
17991;SDS011;9121;50.926;5.340;2023-05-07T08:22:09;10.80;;;5.18;;
17991;SDS011;9121;50.926;5.340;2023-05-07T08:24:37;7.03;;;4.68;;
17991;SDS011;9121;50.926;5.340;2023-05-07T08:27:03;11.27;;;4.75;;
17991;SDS011;9121;50.926;5.340;2023-05-07T08:29:30;12.23;;;4.85;;
17991;SDS011;9121;50.926;5.340;2023-05-07T08:31:57;7.75;;;4.93;;
17991;SDS011;9121;50.926;5.340;2023-05-07T08:34:26;10.15;;;4.82;;
17991;SDS011;9121;50.926;5.340;2023-05-07T08:36:52;14.18;;;4.75;;
17991;SDS011;9121;50.926;5.340;2023-05-07T08:39:20;8.77;;;5.32;;
17991;SDS011;9121;50.926;5.340;2023-05-07T08:41:47;8.35;;;5.07;;
17991;SDS011;9121;50.926;5.340;2023-05-07T08:44:18;9.55;;;5.30;;
17991;SDS011;9121;50.926;5.340;2023-05-07T08:46:48;7.78;;;4.85;;
17991;SDS011;9121;50.926;5.340;2023-05-07T08:49:19;8.82;;;5.82;;
17991;SDS011;9121;50.926;5.340;2023-05-07T08:51:47;10.95;;;5.72;;
17991;SDS011;9121;50.926;5.340;2023-05-07T08:54:15;11.35;;;5.13;;
17991;SDS011;9121;50.926;5.340;2023-05-07T08:56:42;8.95;;;4.63;;
17991;SDS011;9121;50.926;5.340;2023-05-07T08:59:10;8.93;;;4.38;;
17991;SDS011;9121;50.926;5.340;2023-05-07T09:01:37;10.70;;;4.38;;
17991;SDS011;9121;50.926;5.340;2023-05-07T09:04:04;8.70;;;4.65;;
17991;SDS011;9121;50.926;5.340;2023-05-07T09:06:32;7.72;;;5.07;;
17991;SDS011;9121;50.926;5.340;2023-05-07T09:09:01;9.85;;;4.60;;
17991;SDS011;9121;50.926;5.340;2023-05-07T09:11:30;14.73;;;5.55;;
17991;SDS011;9121;50.926;5.340;2023-05-07T09:13:57;9.52;;;5.50;;
17991;SDS011;9121;50.926;5.340;2023-05-07T09:16:26;10.55;;;5.38;;
17991;SDS011;9121;50.926;5.340;2023-05-07T09:18:56;8.85;;;5.40;;
17991;SDS011;9121;50.926;5.340;2023-05-07T09:21:24;10.10;;;5.38;;
17991;SDS011;9121;50.926;5.340;2023-05-07T09:23:52;8.10;;;5.85;;
17991;SDS011;9121;50.926;5.340;2023-05-07T09:26:23;12.15;;;5.88;;
17991;SDS011;9121;50.926;5.340;2023-05-07T09:28:50;10.30;;;6.00;;
17991;SDS011;9121;50.926;5.340;2023-05-07T09:31:18;12.80;;;5.88;;
17991;SDS011;9121;50.926;5.340;2023-05-07T09:33:45;10.93;;;6.30;;
17991;SDS011;9121;50.926;5.340;2023-05-07T09:36:12;11.57;;;5.85;;
17991;SDS011;9121;50.926;5.340;2023-05-07T09:38:39;11.38;;;6.05;;
17991;SDS011;9121;50.926;5.340;2023-05-07T09:41:07;11.55;;;6.38;;
17991;SDS011;9121;50.926;5.340;2023-05-07T09:43:37;10.65;;;6.05;;
17991;SDS011;9121;50.926;5.340;2023-05-07T09:46:06;10.00;;;5.63;;
17991;SDS011;9121;50.926;5.340;2023-05-07T09:48:35;12.50;;;5.82;;
17991;SDS011;9121;50.926;5.340;2023-05-07T09:51:06;14.18;;;4.93;;
17991;SDS011;9121;50.926;5.340;2023-05-07T09:53:41;9.60;;;5.15;;
17991;SDS011;9121;50.926;5.340;2023-05-07T09:56:12;9.32;;;4.65;;
17991;SDS011;9121;50.926;5.340;2023-05-07T09:58:41;10.43;;;5.13;;
17991;SDS011;9121;50.926;5.340;2023-05-07T10:01:10;8.98;;;5.28;;
17991;SDS011;9121;50.926;5.340;2023-05-07T10:03:39;11.75;;;5.38;;
17991;SDS011;9121;50.926;5.340;2023-05-07T10:06:08;11.60;;;5.13;;
17991;SDS011;9121;50.926;5.340;2023-05-07T10:08:36;15.35;;;6.05;;
17991;SDS011;9121;50.926;5.340;2023-05-07T10:11:03;14.00;;;6.40;;
17991;SDS011;9121;50.926;5.340;2023-05-07T10:13:31;15.00;;;6.35;;
17991;SDS011;9121;50.926;5.340;2023-05-07T10:16:02;14.68;;;6.18;;
17991;SDS011;9121;50.926;5.340;2023-05-07T10:18:30;10.35;;;5.78;;
17991;SDS011;9121;50.926;5.340;2023-05-07T10:20:59;10.70;;;5.10;;
17991;SDS011;9121;50.926;5.340;2023-05-07T10:23:31;13.60;;;5.93;;
17991;SDS011;9121;50.926;5.340;2023-05-07T10:25:59;13.98;;;5.57;;
17991;SDS011;9121;50.926;5.340;2023-05-07T10:28:28;8.02;;;4.75;;
17991;SDS011;9121;50.926;5.340;2023-05-07T10:31:03;14.85;;;6.55;;
17991;SDS011;9121;50.926;5.340;2023-05-07T10:33:44;13.77;;;5.68;;
17991;SDS011;9121;50.926;5.340;2023-05-07T10:36:13;14.75;;;5.45;;
17991;SDS011;9121;50.926;5.340;2023-05-07T10:38:40;10.75;;;5.15;;
17991;SDS011;9121;50.926;5.340;2023-05-07T10:41:07;11.70;;;6.05;;
17991;SDS011;9121;50.926;5.340;2023-05-07T10:43:40;12.35;;;5.75;;
17991;SDS011;9121;50.926;5.340;2023-05-07T10:46:16;12.50;;;6.20;;
17991;SDS011;9121;50.926;5.340;2023-05-07T10:51:33;14.50;;;7.18;;
17991;SDS011;9121;50.926;5.340;2023-05-07T10:54:19;21.77;;;7.28;;
17991;SDS011;9121;50.926;5.340;2023-05-07T10:56:47;16.42;;;7.18;;
17991;SDS011;9121;50.926;5.340;2023-05-07T10:59:35;20.98;;;6.88;;
17991;SDS011;9121;50.926;5.340;2023-05-07T11:02:10;11.48;;;5.95;;
17991;SDS011;9121;50.926;5.340;2023-05-07T11:04:39;13.27;;;6.03;;
17991;SDS011;9121;50.926;5.340;2023-05-07T11:10:01;14.63;;;6.00;;
17991;SDS011;9121;50.926;5.340;2023-05-07T11:18:04;10.63;;;6.07;;
17991;SDS011;9121;50.926;5.340;2023-05-07T11:26:25;17.55;;;5.53;;
17991;SDS011;9121;50.926;5.340;2023-05-07T11:28:53;11.48;;;4.97;;
17991;SDS011;9121;50.926;5.340;2023-05-07T11:31:21;12.55;;;5.60;;
17991;SDS011;9121;50.926;5.340;2023-05-07T11:33:51;13.52;;;5.25;;
17991;SDS011;9121;50.926;5.340;2023-05-07T11:36:19;14.70;;;5.20;;
17991;SDS011;9121;50.926;5.340;2023-05-07T11:38:46;12.52;;;5.97;;
17991;SDS011;9121;50.926;5.340;2023-05-07T11:41:13;11.25;;;5.10;;
17991;SDS011;9121;50.926;5.340;2023-05-07T11:43:55;10.95;;;5.63;;
17991;SDS011;9121;50.926;5.340;2023-05-07T11:46:23;11.82;;;5.45;;
17991;SDS011;9121;50.926;5.340;2023-05-07T11:48:51;13.18;;;5.22;;
17991;SDS011;9121;50.926;5.340;2023-05-07T11:51:18;12.30;;;5.13;;
17991;SDS011;9121;50.926;5.340;2023-05-07T11:53:46;14.30;;;5.28;;
17991;SDS011;9121;50.926;5.340;2023-05-07T11:56:13;9.10;;;4.32;;
17991;SDS011;9121;50.926;5.340;2023-05-07T11:58:42;14.00;;;5.10;;
17991;SDS011;9121;50.926;5.340;2023-05-07T12:01:09;11.38;;;5.38;;
17991;SDS011;9121;50.926;5.340;2023-05-07T12:03:37;16.20;;;5.93;;
17991;SDS011;9121;50.926;5.340;2023-05-07T12:06:08;10.73;;;5.65;;
17991;SDS011;9121;50.926;5.340;2023-05-07T12:08:36;10.35;;;4.95;;
17991;SDS011;9121;50.926;5.340;2023-05-07T12:11:03;10.85;;;5.22;;
17991;SDS011;9121;50.926;5.340;2023-05-07T12:13:32;12.38;;;6.10;;
17991;SDS011;9121;50.926;5.340;2023-05-07T12:15:59;11.75;;;5.38;;
17991;SDS011;9121;50.926;5.340;2023-05-07T12:18:28;12.73;;;6.15;;
17991;SDS011;9121;50.926;5.340;2023-05-07T12:20:56;12.85;;;6.20;;
17991;SDS011;9121;50.926;5.340;2023-05-07T12:23:24;10.38;;;5.38;;
17991;SDS011;9121;50.926;5.340;2023-05-07T12:25:51;12.48;;;6.03;;
17991;SDS011;9121;50.926;5.340;2023-05-07T12:28:18;13.98;;;5.50;;
17991;SDS011;9121;50.926;5.340;2023-05-07T12:30:46;9.32;;;5.45;;
17991;SDS011;9121;50.926;5.340;2023-05-07T12:33:16;13.18;;;5.43;;
17991;SDS011;9121;50.926;5.340;2023-05-07T12:35:43;13.77;;;6.18;;
17991;SDS011;9121;50.926;5.340;2023-05-07T12:38:11;9.88;;;5.57;;
17991;SDS011;9121;50.926;5.340;2023-05-07T12:40:41;11.30;;;5.55;;
17991;SDS011;9121;50.926;5.340;2023-05-07T12:43:14;12.15;;;5.97;;
17991;SDS011;9121;50.926;5.340;2023-05-07T12:45:42;9.95;;;5.32;;
17991;SDS011;9121;50.926;5.340;2023-05-07T12:48:10;15.05;;;5.55;;
17991;SDS011;9121;50.926;5.340;2023-05-07T12:50:37;8.95;;;4.97;;
17991;SDS011;9121;50.926;5.340;2023-05-07T12:53:04;10.65;;;5.18;;
17991;SDS011;9121;50.926;5.340;2023-05-07T12:55:41;11.30;;;5.35;;
17991;SDS011;9121;50.926;5.340;2023-05-07T12:58:14;9.00;;;4.97;;
17991;SDS011;9121;50.926;5.340;2023-05-07T13:00:45;10.73;;;5.07;;
17991;SDS011;9121;50.926;5.340;2023-05-07T13:03:20;11.02;;;4.53;;
17991;SDS011;9121;50.926;5.340;2023-05-07T13:05:49;13.52;;;5.10;;
17991;SDS011;9121;50.926;5.340;2023-05-07T13:08:26;10.77;;;4.75;;
17991;SDS011;9121;50.926;5.340;2023-05-07T13:10:55;9.02;;;4.60;;
17991;SDS011;9121;50.926;5.340;2023-05-07T13:13:23;9.75;;;5.03;;
17991;SDS011;9121;50.926;5.340;2023-05-07T13:15:50;9.43;;;4.32;;
17991;SDS011;9121;50.926;5.340;2023-05-07T13:18:17;10.43;;;4.38;;
17991;SDS011;9121;50.926;5.340;2023-05-07T13:20:44;9.77;;;4.15;;
17991;SDS011;9121;50.926;5.340;2023-05-07T13:23:11;13.65;;;4.78;;
17991;SDS011;9121;50.926;5.340;2023-05-07T13:25:38;10.57;;;4.03;;
17991;SDS011;9121;50.926;5.340;2023-05-07T13:28:06;7.88;;;4.25;;
17991;SDS011;9121;50.926;5.340;2023-05-07T13:30:33;7.45;;;3.45;;
17991;SDS011;9121;50.926;5.340;2023-05-07T13:33:00;8.05;;;4.18;;
17991;SDS011;9121;50.926;5.340;2023-05-07T13:35:27;12.27;;;3.47;;
17991;SDS011;9121;50.926;5.340;2023-05-07T13:37:54;7.68;;;3.20;;
17991;SDS011;9121;50.926;5.340;2023-05-07T13:40:21;7.88;;;3.08;;
17991;SDS011;9121;50.926;5.340;2023-05-07T13:42:49;6.43;;;2.45;;
17991;SDS011;9121;50.926;5.340;2023-05-07T13:45:17;8.13;;;3.33;;
17991;SDS011;9121;50.926;5.340;2023-05-07T13:47:45;6.47;;;3.13;;
17991;SDS011;9121;50.926;5.340;2023-05-07T13:50:14;7.15;;;3.20;;
17991;SDS011;9121;50.926;5.340;2023-05-07T13:52:41;6.05;;;2.63;;
17991;SDS011;9121;50.926;5.340;2023-05-07T13:55:11;8.80;;;3.03;;
17991;SDS011;9121;50.926;5.340;2023-05-07T13:57:37;8.52;;;3.10;;
17991;SDS011;9121;50.926;5.340;2023-05-07T14:00:05;8.80;;;3.30;;
17991;SDS011;9121;50.926;5.340;2023-05-07T14:02:34;6.57;;;3.05;;
17991;SDS011;9121;50.926;5.340;2023-05-07T14:05:01;11.73;;;3.80;;
17991;SDS011;9121;50.926;5.340;2023-05-07T14:07:29;10.15;;;3.55;;
17991;SDS011;9121;50.926;5.340;2023-05-07T14:09:56;9.77;;;3.42;;
17991;SDS011;9121;50.926;5.340;2023-05-07T14:12:23;7.68;;;3.47;;
17991;SDS011;9121;50.926;5.340;2023-05-07T14:14:50;5.55;;;2.90;;
17991;SDS011;9121;50.926;5.340;2023-05-07T14:17:17;9.82;;;3.10;;
17991;SDS011;9121;50.926;5.340;2023-05-07T14:19:46;3.45;;;2.25;;
17991;SDS011;9121;50.926;5.340;2023-05-07T14:22:13;4.35;;;2.00;;
17991;SDS011;9121;50.926;5.340;2023-05-07T14:24:40;4.55;;;2.13;;
17991;SDS011;9121;50.926;5.340;2023-05-07T14:27:07;7.70;;;2.55;;
17991;SDS011;9121;50.926;5.340;2023-05-07T14:29:34;5.53;;;2.72;;
17991;SDS011;9121;50.926;5.340;2023-05-07T14:32:01;6.22;;;2.90;;
17991;SDS011;9121;50.926;5.340;2023-05-07T14:34:28;8.32;;;3.47;;
17991;SDS011;9121;50.926;5.340;2023-05-07T14:36:57;7.32;;;3.85;;
17991;SDS011;9121;50.926;5.340;2023-05-07T14:39:24;5.90;;;3.13;;
17991;SDS011;9121;50.926;5.340;2023-05-07T14:41:51;6.75;;;3.53;;
17991;SDS011;9121;50.926;5.340;2023-05-07T14:44:19;7.65;;;3.42;;
17991;SDS011;9121;50.926;5.340;2023-05-07T14:46:46;7.28;;;2.88;;
17991;SDS011;9121;50.926;5.340;2023-05-07T14:49:13;8.63;;;3.08;;
17991;SDS011;9121;50.926;5.340;2023-05-07T14:51:42;6.70;;;3.10;;
17991;SDS011;9121;50.926;5.340;2023-05-07T14:54:11;7.22;;;2.45;;
17991;SDS011;9121;50.926;5.340;2023-05-07T14:56:38;8.38;;;2.92;;
17991;SDS011;9121;50.926;5.340;2023-05-07T14:59:06;8.48;;;3.13;;
17991;SDS011;9121;50.926;5.340;2023-05-07T15:01:33;8.32;;;3.40;;
17991;SDS011;9121;50.926;5.340;2023-05-07T15:04:02;12.27;;;2.72;;
17991;SDS011;9121;50.926;5.340;2023-05-07T15:06:29;7.47;;;3.20;;
17991;SDS011;9121;50.926;5.340;2023-05-07T15:08:57;9.93;;;3.15;;